Time;durP1;ratioP1;P1;durP2;ratioP2;P2;SDS_P1;SDS_P2;PMS_P1;PMS_P2;Temp;Humidity;BMP_temperature;BMP_pressure;BME280_temperature;BME280_humidity;BME280_pressure;Samples;Min_cycle;Max_cycle;Signal;HPM_P1;HPM_P2
2023/12/05 00:01:35;;;;;;;;;;;19.00;36.90;;;;;;5095443;28;19930;-56
2023/12/05 00:04:03;;;;;;;;;;;19.00;36.90;;;;;;5114090;28;19977;-57
2023/12/05 00:06:30;;;;;;;;;;;19.00;36.90;;;;;;5098341;28;19923;-56
2023/12/05 00:08:57;;;;;;;;;;;19.00;36.90;;;;;;5113965;28;19931;-56
2023/12/05 00:11:25;;;;;;;;;;;19.00;36.90;;;;;;5113094;28;19977;-56
2023/12/05 00:13:51;;;;;;;;;;;19.00;36.80;;;;;;5112935;28;19924;-57
2023/12/05 00:16:18;;;;;;;;;;;18.90;36.80;;;;;;5112583;28;19927;-56
2023/12/05 00:18:49;;;;;;;;;;;18.90;36.80;;;;;;5099730;28;19923;-56
2023/12/05 00:21:17;;;;;;;;;;;18.90;36.80;;;;;;5113255;28;19924;-56
2023/12/05 00:23:44;;;;;;;;;;;18.90;36.70;;;;;;5113018;28;19923;-56
2023/12/05 00:26:11;;;;;;;;;;;18.90;36.80;;;;;;5112794;28;19984;-56
2023/12/05 00:28:37;;;;;;;;;;;18.90;36.70;;;;;;5107549;28;19930;-56
2023/12/05 00:31:04;;;;;;;;;;;19.00;36.70;;;;;;5112408;28;20022;-56
2023/12/05 00:33:31;;;;;;;;;;;18.90;36.70;;;;;;5112311;28;19927;-56
2023/12/05 00:35:58;;;;;;;;;;;18.90;36.70;;;;;;5079282;28;19947;-56
2023/12/05 00:38:26;;;;;;;;;;;19.00;36.70;;;;;;5113067;28;19997;-56
2023/12/05 00:40:53;;;;;;;;;;;18.90;36.60;;;;;;5112357;28;19936;-57
2023/12/05 00:43:20;;;;;;;;;;;19.00;36.70;;;;;;5094713;28;19924;-57
2023/12/05 00:45:46;;;;;;;;;;;19.00;36.70;;;;;;5102760;28;19924;-56
2023/12/05 00:48:13;;;;;;;;;;;18.90;36.60;;;;;;5112638;28;19924;-56
2023/12/05 00:50:40;;;;;;;;;;;18.90;36.50;;;;;;5096341;28;19924;-56
2023/12/05 00:53:07;;;;;;;;;;;18.90;36.60;;;;;;5112342;28;19932;-56
2023/12/05 00:55:35;;;;;;;;;;;18.90;36.50;;;;;;5103148;28;19931;-56
2023/12/05 00:58:02;;;;;;;;;;;18.90;36.50;;;;;;5094562;28;20018;-56
2023/12/05 01:00:29;;;;;;;;;;;18.90;36.50;;;;;;5096715;28;20338;-56
2023/12/05 01:02:56;;;;;;;;;;;18.90;36.50;;;;;;5102821;28;19923;-56
2023/12/05 01:05:22;;;;;;;;;;;18.90;36.50;;;;;;5112000;28;19923;-56
2023/12/05 01:07:49;;;;;;;;;;;18.90;36.40;;;;;;5094234;28;19928;-57
2023/12/05 01:10:16;;;;;;;;;;;18.90;36.40;;;;;;5091902;28;19931;-56
2023/12/05 01:12:45;;;;;;;;;;;18.90;36.40;;;;;;5091800;28;19973;-56
2023/12/05 01:15:12;;;;;;;;;;;18.90;36.40;;;;;;5086039;28;19949;-56
2023/12/05 01:17:39;;;;;;;;;;;18.90;36.40;;;;;;5094130;28;19931;-56
2023/12/05 01:20:07;;;;;;;;;;;18.90;36.40;;;;;;5102103;28;19927;-56
2023/12/05 01:22:34;;;;;;;;;;;18.90;36.40;;;;;;5112353;28;19928;-56
2023/12/05 01:25:00;;;;;;;;;;;18.90;36.40;;;;;;5112640;28;20044;-56
2023/12/05 01:27:27;;;;;;;;;;;18.90;36.30;;;;;;5111623;28;19924;-56
2023/12/05 01:29:55;;;;;;;;;;;18.90;36.30;;;;;;5112313;28;19953;-56
2023/12/05 01:32:21;;;;;;;;;;;18.90;36.30;;;;;;5094182;28;19924;-56
2023/12/05 01:34:48;;;;;;;;;;;18.90;36.30;;;;;;5093975;28;19928;-56
2023/12/05 01:37:15;;;;;;;;;;;18.90;36.30;;;;;;5101777;28;19920;-56
2023/12/05 01:39:42;;;;;;;;;;;18.90;36.30;;;;;;5102624;28;19928;-56
2023/12/05 01:42:08;;;;;;;;;;;18.90;36.20;;;;;;5111387;28;20239;-56
2023/12/05 01:44:35;;;;;;;;;;;18.90;36.20;;;;;;5105905;28;19928;-56
2023/12/05 01:47:04;;;;;;;;;;;18.90;36.20;;;;;;5112120;28;20016;-56
2023/12/05 01:49:33;;;;;;;;;;;18.90;36.20;;;;;;5093473;28;19931;-56
2023/12/05 01:52:00;;;;;;;;;;;18.90;36.20;;;;;;5093357;28;19932;-55
2023/12/05 01:54:27;;;;;;;;;;;18.90;36.20;;;;;;5102670;28;19949;-57
2023/12/05 01:56:54;;;;;;;;;;;18.90;36.20;;;;;;5112026;28;19931;-56
2023/12/05 01:59:22;;;;;;;;;;;18.90;36.20;;;;;;5092896;28;19924;-56
2023/12/05 02:01:49;;;;;;;;;;;18.90;36.20;;;;;;5093486;28;20019;-56
2023/12/05 02:04:17;;;;;;;;;;;18.90;36.20;;;;;;5112009;28;19996;-56
2023/12/05 02:06:44;;;;;;;;;;;18.90;36.20;;;;;;5097669;28;19924;-56
2023/12/05 02:09:11;;;;;;;;;;;18.90;36.20;;;;;;5094170;28;20010;-56
2023/12/05 02:11:38;;;;;;;;;;;18.90;36.10;;;;;;5094222;28;19996;-54
2023/12/05 02:14:06;;;;;;;;;;;18.90;36.10;;;;;;5101995;28;19973;-56
2023/12/05 02:16:35;;;;;;;;;;;18.90;36.10;;;;;;5097095;28;19930;-56
2023/12/05 02:19:05;;;;;;;;;;;18.90;36.10;;;;;;5112086;28;19927;-56
2023/12/05 02:21:33;;;;;;;;;;;18.90;36.00;;;;;;5093435;28;19969;-56
2023/12/05 02:24:15;;;;;;;;;;;18.90;36.00;;;;;;5095218;28;20170;-56
2023/12/05 02:26:43;;;;;;;;;;;18.80;35.90;;;;;;5095271;28;19924;-56
2023/12/05 02:29:11;;;;;;;;;;;18.80;35.90;;;;;;5115710;28;20019;-57
2023/12/05 02:31:38;;;;;;;;;;;18.90;36.00;;;;;;5115578;28;20011;-56
2023/12/05 02:34:05;;;;;;;;;;;18.90;36.00;;;;;;5097903;28;19978;-56
2023/12/05 02:36:33;;;;;;;;;;;18.90;35.90;;;;;;5114731;28;19924;-56
2023/12/05 02:39:03;;;;;;;;;;;18.90;36.00;;;;;;5097462;28;19980;-56
2023/12/05 02:41:30;;;;;;;;;;;18.90;36.00;;;;;;5102901;28;19989;-56
2023/12/05 02:43:59;;;;;;;;;;;18.80;35.80;;;;;;5097411;28;20010;-56
2023/12/05 02:46:28;;;;;;;;;;;18.90;36.00;;;;;;5096532;28;19978;-56
2023/12/05 02:48:54;;;;;;;;;;;18.90;35.90;;;;;;5106068;28;19931;-56
2023/12/05 02:51:21;;;;;;;;;;;18.90;35.90;;;;;;5098186;28;19924;-56
2023/12/05 02:53:48;;;;;;;;;;;18.80;35.80;;;;;;5097523;28;19931;-56
2023/12/05 02:56:15;;;;;;;;;;;18.80;35.80;;;;;;5097286;28;19927;-56
2023/12/05 02:58:41;;;;;;;;;;;18.80;35.80;;;;;;5096944;28;19928;-56
2023/12/05 03:01:09;;;;;;;;;;;18.90;35.80;;;;;;5115574;28;19984;-56
2023/12/05 03:03:37;;;;;;;;;;;18.80;35.80;;;;;;5114614;28;19927;-56
2023/12/05 03:06:04;;;;;;;;;;;18.90;35.80;;;;;;5102828;28;19928;-57
2023/12/05 03:08:31;;;;;;;;;;;18.80;35.80;;;;;;5110587;28;20019;-57
2023/12/05 03:10:57;;;;;;;;;;;18.80;35.70;;;;;;5094833;28;19974;-56
2023/12/05 03:13:24;;;;;;;;;;;18.80;35.70;;;;;;5105505;28;20335;-56
2023/12/05 03:15:51;;;;;;;;;;;18.80;35.70;;;;;;5113528;28;19924;-56
2023/12/05 03:18:18;;;;;;;;;;;18.80;35.70;;;;;;5114626;28;19930;-56
2023/12/05 03:20:46;;;;;;;;;;;18.80;35.80;;;;;;5114297;28;19923;-56
2023/12/05 03:23:13;;;;;;;;;;;18.80;35.80;;;;;;5105893;28;19924;-57
2023/12/05 03:25:39;;;;;;;;;;;18.80;35.70;;;;;;5100935;28;19961;-56
2023/12/05 03:28:06;;;;;;;;;;;18.80;35.70;;;;;;5114874;28;19923;-56
2023/12/05 03:30:33;;;;;;;;;;;18.80;35.70;;;;;;5104833;28;19937;-56
2023/12/05 03:33:00;;;;;;;;;;;18.90;35.80;;;;;;5096122;28;19973;-56
2023/12/05 03:35:26;;;;;;;;;;;18.80;35.70;;;;;;5103516;28;19932;-56
2023/12/05 03:37:55;;;;;;;;;;;18.80;35.70;;;;;;5102002;28;19951;-56
2023/12/05 03:40:21;;;;;;;;;;;18.80;35.70;;;;;;5095300;28;19924;-56
2023/12/05 03:42:48;;;;;;;;;;;18.80;35.70;;;;;;5095301;28;20433;-56
2023/12/05 03:45:15;;;;;;;;;;;18.80;35.70;;;;;;5113717;28;19927;-56
2023/12/05 03:47:42;;;;;;;;;;;18.80;35.70;;;;;;5114039;28;19997;-56
2023/12/05 03:50:09;;;;;;;;;;;18.80;35.70;;;;;;5113844;28;20331;-56
2023/12/05 03:52:35;;;;;;;;;;;18.80;35.70;;;;;;5088813;28;19931;-56
2023/12/05 03:55:04;;;;;;;;;;;18.80;35.70;;;;;;5094019;28;19927;-56
2023/12/05 03:57:31;;;;;;;;;;;18.80;35.70;;;;;;5104168;28;19923;-56
2023/12/05 03:59:57;;;;;;;;;;;18.80;35.70;;;;;;5096151;28;19924;-56
2023/12/05 04:02:24;;;;;;;;;;;18.80;35.70;;;;;;5106280;28;19924;-57
2023/12/05 04:04:51;;;;;;;;;;;18.80;35.70;;;;;;5098708;28;19973;-56
2023/12/05 04:07:17;;;;;;;;;;;18.80;35.70;;;;;;5095672;28;19923;-56
2023/12/05 04:09:46;;;;;;;;;;;18.80;35.70;;;;;;5092220;28;19932;-56
2023/12/05 04:12:14;;;;;;;;;;;18.80;35.60;;;;;;5113310;27;19924;-56
2023/12/05 04:14:41;;;;;;;;;;;18.80;35.60;;;;;;5099477;28;19958;-56
2023/12/05 04:17:07;;;;;;;;;;;18.80;35.70;;;;;;5102570;28;20018;-56
2023/12/05 04:19:34;;;;;;;;;;;18.80;35.60;;;;;;5103165;28;19923;-56
2023/12/05 04:22:01;;;;;;;;;;;18.80;35.70;;;;;;5094208;28;19924;-56
2023/12/05 04:24:27;;;;;;;;;;;18.80;35.60;;;;;;5100494;28;19931;-56
2023/12/05 04:26:54;;;;;;;;;;;18.80;35.70;;;;;;5094488;28;19928;-56
2023/12/05 04:29:22;;;;;;;;;;;18.80;35.70;;;;;;5084754;28;19923;-56
2023/12/05 04:31:49;;;;;;;;;;;18.80;35.60;;;;;;5102643;28;19984;-57
2023/12/05 04:34:16;;;;;;;;;;;18.80;35.60;;;;;;5112480;28;19924;-57
2023/12/05 04:36:43;;;;;;;;;;;18.80;35.60;;;;;;5111765;28;19930;-56
2023/12/05 04:39:10;;;;;;;;;;;18.80;35.60;;;;;;5112472;28;19931;-56
2023/12/05 04:41:37;;;;;;;;;;;18.80;36.20;;;;;;5102200;28;19924;-56
2023/12/05 04:44:04;;;;;;;;;;;18.80;35.60;;;;;;5102572;28;19986;-55
2023/12/05 04:46:32;;;;;;;;;;;18.80;35.60;;;;;;5110497;28;19932;-57
2023/12/05 04:48:59;;;;;;;;;;;18.80;35.60;;;;;;5095293;28;19977;-56
2023/12/05 04:51:25;;;;;;;;;;;18.80;36.20;;;;;;5111489;28;19924;-56
2023/12/05 04:53:52;;;;;;;;;;;18.80;35.60;;;;;;5110956;28;19924;-56
2023/12/05 04:56:19;;;;;;;;;;;18.80;35.60;;;;;;5102229;28;20231;-56
2023/12/05 04:58:46;;;;;;;;;;;18.80;35.50;;;;;;5096774;28;19939;-58
2023/12/05 05:01:13;;;;;;;;;;;18.80;35.60;;;;;;5094245;28;19923;-57
2023/12/05 05:03:41;;;;;;;;;;;18.80;35.50;;;;;;5098241;28;20073;-57
2023/12/05 05:06:08;;;;;;;;;;;18.80;35.60;;;;;;5110399;28;20410;-57
2023/12/05 05:08:34;;;;;;;;;;;18.80;35.60;;;;;;5098394;28;19923;-57
2023/12/05 05:11:01;;;;;;;;;;;18.80;35.60;;;;;;5102714;28;19928;-57
2023/12/05 05:13:28;;;;;;;;;;;18.80;35.50;;;;;;5094002;28;19958;-57
2023/12/05 05:15:54;;;;;;;;;;;18.80;35.50;;;;;;5092368;28;19928;-57
2023/12/05 05:18:21;;;;;;;;;;;18.80;35.50;;;;;;5092821;28;19935;-57
2023/12/05 05:20:49;;;;;;;;;;;18.80;35.50;;;;;;5104033;27;19927;-57
2023/12/05 05:23:16;;;;;;;;;;;18.80;35.50;;;;;;5104314;27;19935;-57
2023/12/05 05:25:43;;;;;;;;;;;18.80;35.50;;;;;;5117419;27;19993;-57
2023/12/05 05:28:10;;;;;;;;;;;18.80;35.50;;;;;;5098703;27;19932;-57
2023/12/05 05:30:36;;;;;;;;;;;18.80;35.50;;;;;;5115649;27;19985;-57
2023/12/05 05:33:03;;;;;;;;;;;18.80;35.50;;;;;;5109352;28;19945;-57
2023/12/05 05:35:30;;;;;;;;;;;18.80;35.50;;;;;;5111897;28;20038;-58
2023/12/05 05:37:58;;;;;;;;;;;18.80;35.50;;;;;;5098891;28;19931;-58
2023/12/05 05:40:27;;;;;;;;;;;18.80;35.50;;;;;;5101102;28;19924;-57
2023/12/05 05:42:54;;;;;;;;;;;18.80;35.50;;;;;;5094160;28;19923;-57
2023/12/05 05:45:21;;;;;;;;;;;18.80;35.40;;;;;;5112068;28;19966;-57
2023/12/05 05:47:47;;;;;;;;;;;18.80;35.50;;;;;;5104978;28;19989;-58
2023/12/05 05:50:14;;;;;;;;;;;18.80;35.50;;;;;;5112599;28;19924;-57
2023/12/05 05:52:43;;;;;;;;;;;18.80;35.50;;;;;;5094347;28;19930;-57
2023/12/05 05:55:11;;;;;;;;;;;18.80;35.40;;;;;;5093715;28;19973;-57
2023/12/05 05:57:38;;;;;;;;;;;18.80;35.50;;;;;;5105647;28;20205;-58
2023/12/05 06:00:05;;;;;;;;;;;18.80;35.50;;;;;;5104900;28;19931;-57
2023/12/05 06:02:32;;;;;;;;;;;18.80;35.50;;;;;;5084031;28;19986;-57
2023/12/05 06:04:59;;;;;;;;;;;18.70;36.10;;;;;;5096100;28;19935;-57
2023/12/05 06:07:26;;;;;;;;;;;18.80;35.50;;;;;;5097295;28;19931;-57
2023/12/05 06:09:52;;;;;;;;;;;18.80;35.50;;;;;;5105622;28;19931;-57
2023/12/05 06:12:21;;;;;;;;;;;18.70;35.40;;;;;;5115120;28;20300;-58
2023/12/05 06:14:47;;;;;;;;;;;18.80;35.50;;;;;;5097117;28;19927;-57
2023/12/05 06:17:14;;;;;;;;;;;18.80;35.60;;;;;;5088667;28;19932;-58
2023/12/05 06:19:41;;;;;;;;;;;18.80;35.60;;;;;;5114317;28;19931;-57
2023/12/05 06:22:08;;;;;;;;;;;18.80;35.60;;;;;;5114629;28;19924;-57
2023/12/05 06:24:34;;;;;;;;;;;18.80;35.60;;;;;;5096700;28;19982;-57
2023/12/05 06:27:02;;;;;;;;;;;18.70;35.50;;;;;;5115715;28;19953;-57
2023/12/05 06:29:30;;;;;;;;;;;18.70;35.50;;;;;;5100477;28;19942;-57
2023/12/05 06:31:56;;;;;;;;;;;18.80;35.60;;;;;;5100320;28;19969;-58
2023/12/05 06:34:24;;;;;;;;;;;18.80;35.60;;;;;;5116039;28;19993;-57
2023/12/05 06:36:50;;;;;;;;;;;18.80;35.50;;;;;;5099322;28;19931;-58
2023/12/05 06:39:17;;;;;;;;;;;18.80;35.60;;;;;;5098946;28;20032;-58
2023/12/05 06:41:44;;;;;;;;;;;18.80;35.60;;;;;;5093497;28;19931;-56
2023/12/05 06:44:11;;;;;;;;;;;18.80;35.50;;;;;;5106203;28;19924;-57
2023/12/05 06:46:39;;;;;;;;;;;18.70;35.50;;;;;;5097309;28;19928;-57
2023/12/05 06:49:05;;;;;;;;;;;18.80;35.50;;;;;;5097535;28;19992;-57
2023/12/05 06:51:32;;;;;;;;;;;18.80;35.60;;;;;;5096458;28;20399;-58
2023/12/05 06:53:59;;;;;;;;;;;18.80;35.50;;;;;;5105658;28;19930;-57
2023/12/05 06:56:26;;;;;;;;;;;18.80;35.50;;;;;;5103551;28;19927;-57
2023/12/05 06:58:52;;;;;;;;;;;18.80;35.50;;;;;;5097035;28;19931;-57
2023/12/05 07:01:19;;;;;;;;;;;18.80;35.50;;;;;;5112673;28;19931;-57
2023/12/05 07:03:47;;;;;;;;;;;18.80;35.50;;;;;;5106798;28;19935;-57
2023/12/05 07:06:14;;;;;;;;;;;18.80;35.50;;;;;;5072121;28;20007;-57
2023/12/05 07:08:41;;;;;;;;;;;18.70;35.40;;;;;;5095086;28;19923;-57
2023/12/05 07:11:08;;;;;;;;;;;18.80;35.50;;;;;;5114350;28;19927;-57
2023/12/05 07:13:34;;;;;;;;;;;18.80;35.50;;;;;;5115348;28;19924;-57
2023/12/05 07:16:01;;;;;;;;;;;18.80;35.40;;;;;;5096607;28;20462;-58
2023/12/05 07:18:28;;;;;;;;;;;18.80;35.40;;;;;;5097073;28;19931;-57
2023/12/05 07:20:56;;;;;;;;;;;18.80;35.40;;;;;;5096811;28;19946;-57
2023/12/05 07:23:23;;;;;;;;;;;18.80;35.40;;;;;;5114651;28;19980;-57
2023/12/05 07:25:51;;;;;;;;;;;18.70;35.30;;;;;;5097463;28;19977;-57
2023/12/05 07:28:17;;;;;;;;;;;18.70;35.40;;;;;;5095989;28;19924;-58
2023/12/05 07:30:44;;;;;;;;;;;18.80;35.40;;;;;;5114903;28;19924;-57
2023/12/05 07:33:11;;;;;;;;;;;18.70;35.30;;;;;;5114989;28;19950;-57
2023/12/05 07:35:37;;;;;;;;;;;18.70;35.40;;;;;;5100874;28;19924;-57
2023/12/05 07:38:06;;;;;;;;;;;18.70;35.30;;;;;;5095789;28;19931;-57
2023/12/05 07:40:33;;;;;;;;;;;18.80;35.40;;;;;;5111057;28;19928;-57
2023/12/05 07:43:00;;;;;;;;;;;18.80;35.40;;;;;;5091301;28;19931;-58
2023/12/05 07:45:26;;;;;;;;;;;18.70;35.40;;;;;;5098763;28;19923;-57
2023/12/05 07:47:53;;;;;;;;;;;18.80;35.50;;;;;;5113681;28;19932;-57
2023/12/05 07:50:20;;;;;;;;;;;18.80;35.50;;;;;;5096125;28;19963;-57
2023/12/05 07:52:48;;;;;;;;;;;18.80;35.50;;;;;;5099234;28;19992;-57
2023/12/05 07:55:17;;;;;;;;;;;18.70;35.50;;;;;;5098686;28;19927;-57
2023/12/05 07:57:44;;;;;;;;;;;18.70;35.50;;;;;;5099043;28;19932;-57
2023/12/05 08:00:16;;;;;;;;;;;18.80;35.60;;;;;;5096297;28;19931;-57
2023/12/05 08:02:42;;;;;;;;;;;18.70;35.60;;;;;;5112239;28;20240;-57
2023/12/05 08:05:10;;;;;;;;;;;18.70;35.60;;;;;;5094359;28;19927;-57
2023/12/05 08:07:36;;;;;;;;;;;18.70;35.70;;;;;;5092449;28;19927;-57
2023/12/05 08:10:03;;;;;;;;;;;18.80;35.80;;;;;;5104515;27;19935;-57
2023/12/05 08:12:31;;;;;;;;;;;18.80;35.80;;;;;;5100591;28;19927;-57
2023/12/05 08:14:58;;;;;;;;;;;18.70;35.70;;;;;;5095985;28;19923;-57
2023/12/05 08:17:25;;;;;;;;;;;18.80;35.80;;;;;;5095690;28;19927;-57
2023/12/05 08:19:52;;;;;;;;;;;18.80;35.80;;;;;;5102634;28;19924;-57
2023/12/05 08:22:19;;;;;;;;;;;18.80;35.80;;;;;;5098005;28;19924;-57
2023/12/05 08:24:45;;;;;;;;;;;18.80;35.90;;;;;;5093082;28;19930;-57
2023/12/05 08:27:12;;;;;;;;;;;18.80;36.00;;;;;;5097968;28;19928;-57
2023/12/05 08:29:40;;;;;;;;;;;18.80;36.00;;;;;;5094225;28;19955;-57
2023/12/05 08:32:07;;;;;;;;;;;18.80;36.00;;;;;;5096867;28;19980;-57
2023/12/05 08:34:34;;;;;;;;;;;18.80;36.00;;;;;;5100697;28;19938;-58
2023/12/05 08:37:01;;;;;;;;;;;18.80;36.10;;;;;;5110176;28;19928;-57
2023/12/05 08:39:28;;;;;;;;;;;18.80;36.10;;;;;;5109565;28;19924;-57
2023/12/05 08:41:57;;;;;;;;;;;18.80;36.10;;;;;;5113315;28;19923;-58
2023/12/05 08:44:24;;;;;;;;;;;18.70;29.30;;;;;;5097078;28;20105;-59
2023/12/05 08:46:52;;;;;;;;;;;18.40;26.50;;;;;;5093184;28;19924;-58
2023/12/05 08:49:19;;;;;;;;;;;17.90;26.70;;;;;;5108907;28;19928;-57
2023/12/05 08:51:46;;;;;;;;;;;17.40;27.50;;;;;;5111809;28;19924;-57
2023/12/05 08:54:13;;;;;;;;;;;17.10;28.90;;;;;;5091800;28;19961;-57
2023/12/05 08:56:39;;;;;;;;;;;17.00;29.90;;;;;;5106152;28;19931;-57
2023/12/05 08:59:06;;;;;;;;;;;16.90;30.80;;;;;;5102176;28;19924;-57
2023/12/05 09:01:33;;;;;;;;;;;17.00;31.90;;;;;;5111137;28;20041;-57
2023/12/05 09:04:01;;;;;;;;;;;17.00;32.60;;;;;;5098125;28;19924;-58
2023/12/05 09:06:28;;;;;;;;;;;17.10;33.20;;;;;;5111181;28;19924;-57
2023/12/05 09:08:54;;;;;;;;;;;17.20;33.90;;;;;;5095091;28;19931;-57
2023/12/05 09:11:20;;;;;;;;;;;17.30;34.00;;;;;;5112749;28;19924;-57
2023/12/05 09:13:47;;;;;;;;;;;17.40;34.20;;;;;;5094291;28;19927;-57
2023/12/05 09:16:14;;;;;;;;;;;17.50;34.30;;;;;;5111122;28;19942;-58
2023/12/05 09:18:41;;;;;;;;;;;17.60;35.00;;;;;;5102360;28;19923;-57
2023/12/05 09:21:09;;;;;;;;;;;17.70;34.50;;;;;;5100495;28;19924;-57
2023/12/05 09:23:36;;;;;;;;;;;17.80;34.50;;;;;;5100770;28;19953;-57
2023/12/05 09:26:03;;;;;;;;;;;17.90;34.60;;;;;;5111495;28;19923;-57
2023/12/05 09:28:31;;;;;;;;;;;18.00;34.60;;;;;;5105496;28;19965;-57
2023/12/05 09:30:58;;;;;;;;;;;18.00;34.60;;;;;;5097486;28;19930;-57
2023/12/05 09:33:25;;;;;;;;;;;18.10;34.70;;;;;;5112415;28;19927;-57
2023/12/05 09:35:52;;;;;;;;;;;18.10;34.70;;;;;;5111861;28;19976;-57
2023/12/05 09:38:20;;;;;;;;;;;18.10;34.70;;;;;;5110942;28;19931;-57
2023/12/05 09:40:47;;;;;;;;;;;18.20;34.80;;;;;;5104299;28;19927;-57
2023/12/05 09:43:13;;;;;;;;;;;18.20;34.80;;;;;;5097655;28;19967;-57
2023/12/05 09:45:42;;;;;;;;;;;18.20;34.70;;;;;;5109740;28;19930;-57
2023/12/05 09:48:09;;;;;;;;;;;18.30;34.80;;;;;;5077386;28;19928;-57
2023/12/05 09:50:36;;;;;;;;;;;18.30;34.70;;;;;;5094774;28;19935;-57
2023/12/05 09:53:03;;;;;;;;;;;18.30;34.70;;;;;;5112189;28;19931;-57
2023/12/05 09:55:31;;;;;;;;;;;18.30;34.70;;;;;;5114430;28;20027;-57
2023/12/05 09:57:58;;;;;;;;;;;18.30;34.70;;;;;;5091528;28;19924;-57
2023/12/05 10:00:25;;;;;;;;;;;18.30;34.70;;;;;;5094109;28;19969;-57
2023/12/05 10:02:53;;;;;;;;;;;18.40;34.70;;;;;;5111134;28;19924;-57
2023/12/05 10:05:20;;;;;;;;;;;18.40;34.80;;;;;;5101396;28;19924;-57
2023/12/05 10:07:47;;;;;;;;;;;18.40;34.80;;;;;;5111895;28;19950;-58
2023/12/05 10:10:14;;;;;;;;;;;18.40;34.80;;;;;;5099909;28;20315;-57
2023/12/05 10:12:42;;;;;;;;;;;18.40;34.80;;;;;;5091291;28;20328;-58
2023/12/05 10:15:09;;;;;;;;;;;18.40;34.80;;;;;;5100532;28;19923;-58
2023/12/05 10:17:37;;;;;;;;;;;18.40;34.90;;;;;;5092778;28;20640;-57
2023/12/05 10:20:04;;;;;;;;;;;18.40;34.90;;;;;;5096308;28;19967;-57
2023/12/05 10:22:31;;;;;;;;;;;18.50;35.00;;;;;;5111752;28;20656;-57
2023/12/05 10:24:58;;;;;;;;;;;18.50;35.00;;;;;;5111127;28;20014;-57
2023/12/05 10:27:25;;;;;;;;;;;18.50;35.10;;;;;;5099561;28;20014;-57
2023/12/05 10:29:53;;;;;;;;;;;18.50;35.10;;;;;;5097007;28;19927;-57
2023/12/05 10:32:26;;;;;;;;;;;18.50;35.10;;;;;;5099656;28;20019;-57
2023/12/05 10:34:52;;;;;;;;;;;18.50;35.10;;;;;;5108309;28;20317;-57
2023/12/05 10:37:22;;;;;;;;;;;18.50;35.10;;;;;;5091720;28;19931;-57
2023/12/05 10:39:49;;;;;;;;;;;18.50;35.10;;;;;;5111024;28;19927;-57
2023/12/05 10:42:16;;;;;;;;;;;18.50;35.10;;;;;;5093691;28;19974;-57
2023/12/05 10:44:43;;;;;;;;;;;18.50;35.10;;;;;;5098373;27;19928;-57
2023/12/05 10:47:11;;;;;;;;;;;18.50;35.10;;;;;;5106591;28;19931;-57
2023/12/05 10:49:41;;;;;;;;;;;18.50;35.20;;;;;;5110276;27;20006;-57
2023/12/05 10:52:08;;;;;;;;;;;18.50;35.20;;;;;;5105240;27;20023;-58
2023/12/05 10:54:35;;;;;;;;;;;18.50;35.20;;;;;;5098572;28;20022;-58
2023/12/05 10:57:08;;;;;;;;;;;18.60;35.40;;;;;;5106421;27;20322;-58
2023/12/05 10:59:35;;;;;;;;;;;18.60;35.40;;;;;;5097136;28;19981;-58
2023/12/05 11:02:02;;;;;;;;;;;18.60;35.40;;;;;;5096849;27;19989;-55
2023/12/05 11:04:30;;;;;;;;;;;18.60;35.40;;;;;;5097145;28;19923;-53
2023/12/05 11:06:57;;;;;;;;;;;18.60;35.40;;;;;;5101865;28;20353;-52
2023/12/05 11:09:25;;;;;;;;;;;18.60;35.50;;;;;;5121151;27;19927;-56
2023/12/05 11:11:52;;;;;;;;;;;18.60;35.70;;;;;;5102107;28;19923;-52
2023/12/05 11:14:20;;;;;;;;;;;18.60;36.00;;;;;;5097024;28;19923;-53
2023/12/05 11:16:47;;;;;;;;;;;18.70;36.10;;;;;;5104069;27;19931;-52
2023/12/05 11:19:15;;;;;;;;;;;18.70;36.20;;;;;;5102765;27;19923;-51
2023/12/05 11:21:47;;;;;;;;;;;18.70;36.20;;;;;;5086598;28;19924;-53
2023/12/05 11:24:18;;;;;;;;;;;18.80;36.20;;;;;;5114297;28;19930;-53
2023/12/05 11:26:57;;;;;;;;;;;18.70;36.00;;;;;;5096128;28;19958;-53
2023/12/05 11:29:33;;;;;;;;;;;18.80;36.00;;;;;;5099086;28;20197;-54
2023/12/05 11:32:02;;;;;;;;;;;18.80;35.90;;;;;;5102871;28;19923;-53
2023/12/05 11:34:32;;;;;;;;;;;18.80;35.90;;;;;;5098734;28;19956;-54
2023/12/05 11:37:03;;;;;;;;;;;18.70;35.80;;;;;;5100810;28;20022;-54
2023/12/05 11:39:30;;;;;;;;;;;18.70;35.90;;;;;;5105372;28;19931;-54
2023/12/05 11:42:07;;;;;;;;;;;18.70;35.80;;;;;;5096511;28;19930;-59
2023/12/05 11:44:35;;;;;;;;;;;18.70;34.60;;;;;;5099371;28;19980;-57
2023/12/05 11:47:03;;;;;;;;;;;18.60;29.40;;;;;;5112726;28;19976;-59
2023/12/05 11:49:37;;;;;;;;;;;18.50;30.60;;;;;;5099980;28;19927;-59
2023/12/05 11:52:11;;;;;;;;;;;18.40;31.30;;;;;;5109262;27;19976;-59
2023/12/05 11:54:40;;;;;;;;;;;18.40;32.30;;;;;;5103253;28;20026;-59
2023/12/05 11:57:14;;;;;;;;;;;18.40;33.10;;;;;;5092994;28;19939;-60
2023/12/05 11:59:41;;;;;;;;;;;18.40;33.60;;;;;;5095651;28;19959;-60
2023/12/05 12:02:08;;;;;;;;;;;18.40;34.00;;;;;;5102646;28;19936;-61
2023/12/05 12:04:35;;;;;;;;;;;18.40;34.30;;;;;;5111780;27;19923;-60
2023/12/05 12:07:01;;;;;;;;;;;18.50;34.70;;;;;;5106012;27;19928;-60
2023/12/05 12:09:30;;;;;;;;;;;18.50;34.90;;;;;;5112027;27;19957;-59
2023/12/05 12:11:57;;;;;;;;;;;18.50;35.10;;;;;;5100657;27;20012;-59
2023/12/05 12:14:24;;;;;;;;;;;18.60;35.30;;;;;;5098794;28;19924;-60
2023/12/05 12:16:51;;;;;;;;;;;18.60;35.40;;;;;;5098426;28;19923;-60
2023/12/05 12:19:17;;;;;;;;;;;18.60;35.50;;;;;;5093612;28;19927;-60
2023/12/05 12:24:25;;;;;;;;;;;18.70;35.70;;;;;;5099910;27;20175;-59
2023/12/05 12:26:54;;;;;;;;;;;18.70;35.80;;;;;;5100532;28;19923;-59
2023/12/05 12:29:21;;;;;;;;;;;18.70;35.80;;;;;;5110362;28;20177;-60
2023/12/05 12:31:48;;;;;;;;;;;18.80;36.00;;;;;;5110371;28;19967;-58
2023/12/05 12:34:21;;;;;;;;;;;18.80;36.00;;;;;;5079617;28;20363;-59
2023/12/05 12:36:49;;;;;;;;;;;18.80;36.10;;;;;;5109500;28;19928;-59
2023/12/05 12:39:16;;;;;;;;;;;18.80;36.10;;;;;;5096655;28;19971;-58
2023/12/05 12:41:43;;;;;;;;;;;18.80;36.00;;;;;;5096787;28;20008;-58
2023/12/05 12:44:11;;;;;;;;;;;18.90;36.70;;;;;;5099133;28;19927;-58
2023/12/05 12:46:38;;;;;;;;;;;18.90;36.00;;;;;;5097285;28;20293;-58
2023/12/05 12:49:05;;;;;;;;;;;18.90;36.00;;;;;;5092624;28;19930;-58
2023/12/05 12:51:33;;;;;;;;;;;18.80;35.90;;;;;;5097418;28;19965;-57
2023/12/05 12:54:02;;;;;;;;;;;18.80;35.90;;;;;;5093805;28;20400;-58
2023/12/05 12:56:30;;;;;;;;;;;18.90;36.00;;;;;;5096896;28;19928;-58
2023/12/05 12:58:59;;;;;;;;;;;18.80;35.90;;;;;;5095036;28;19999;-58
2023/12/05 13:01:27;;;;;;;;;;;18.90;36.00;;;;;;5109000;28;19938;-58
2023/12/05 13:03:54;;;;;;;;;;;18.80;35.90;;;;;;5101115;28;19928;-57
2023/12/05 13:06:21;;;;;;;;;;;18.80;36.00;;;;;;5096169;28;19931;-59
2023/12/05 13:08:48;;;;;;;;;;;18.90;36.00;;;;;;5097786;28;19927;-58
2023/12/05 13:11:15;;;;;;;;;;;18.80;36.00;;;;;;5097841;28;19928;-58
2023/12/05 13:13:42;;;;;;;;;;;18.90;36.10;;;;;;5098742;28;19923;-59
2023/12/05 13:16:08;;;;;;;;;;;18.90;36.10;;;;;;5098526;28;19927;-58
2023/12/05 13:18:44;;;;;;;;;;;18.90;36.10;;;;;;5097929;28;19988;-58
2023/12/05 13:21:11;;;;;;;;;;;18.90;36.10;;;;;;5101068;28;19924;-58
2023/12/05 13:23:38;;;;;;;;;;;18.90;36.20;;;;;;5109307;28;19977;-59
2023/12/05 13:26:05;;;;;;;;;;;18.90;36.10;;;;;;5098265;28;19970;-58
2023/12/05 13:28:31;;;;;;;;;;;18.90;36.20;;;;;;5100957;28;19924;-58
2023/12/05 13:30:58;;;;;;;;;;;18.90;36.20;;;;;;5109453;28;19932;-57
2023/12/05 13:33:25;;;;;;;;;;;18.90;36.20;;;;;;5099337;28;19927;-58
2023/12/05 13:35:53;;;;;;;;;;;18.90;36.10;;;;;;5097978;28;19928;-57
2023/12/05 13:38:20;;;;;;;;;;;18.90;36.10;;;;;;5098362;28;19928;-58
2023/12/05 13:40:47;;;;;;;;;;;18.90;36.20;;;;;;5113129;27;20038;-58
2023/12/05 13:43:14;;;;;;;;;;;18.90;36.20;;;;;;5100879;28;19924;-58
2023/12/05 13:45:40;;;;;;;;;;;19.00;36.20;;;;;;5111865;28;19932;-58
2023/12/05 13:48:07;;;;;;;;;;;18.90;36.20;;;;;;5092545;28;19931;-58
2023/12/05 13:50:34;;;;;;;;;;;18.90;36.30;;;;;;5108414;28;19931;-58
2023/12/05 13:53:02;;;;;;;;;;;18.90;36.30;;;;;;5100160;28;19931;-58
2023/12/05 13:55:29;;;;;;;;;;;19.00;36.30;;;;;;5101816;28;19930;-58
2023/12/05 13:57:56;;;;;;;;;;;19.00;36.40;;;;;;5099490;28;19928;-58
2023/12/05 14:00:23;;;;;;;;;;;19.00;36.40;;;;;;5098306;28;19924;-58
2023/12/05 14:02:49;;;;;;;;;;;19.00;36.40;;;;;;5092462;28;19932;-58
2023/12/05 14:05:16;;;;;;;;;;;19.00;36.40;;;;;;5098917;28;20027;-58
2023/12/05 14:07:43;;;;;;;;;;;19.00;36.40;;;;;;5092867;28;19924;-57
2023/12/05 14:10:11;;;;;;;;;;;19.00;36.40;;;;;;5111004;28;19935;-54
2023/12/05 14:12:38;;;;;;;;;;;19.00;36.40;;;;;;5092920;28;19936;-58
2023/12/05 14:15:06;;;;;;;;;;;19.00;36.40;;;;;;5108531;28;19984;-59
2023/12/05 14:17:33;;;;;;;;;;;19.00;36.40;;;;;;5111731;28;19930;-58
2023/12/05 14:20:01;;;;;;;;;;;19.00;36.40;;;;;;5113150;28;20381;-59